Weather at San Francisco International Airport

Public forecast

Using degrees Fahrenheit for public forecast. Weather courtesy of forecast.io.

Current aviation weather report (METAR) for San Francisco International Airport

Report is more than 6 hours old.

Retrieved 2020/10/22 23:56 UTC (1 day ago):

KSFO 232356Z 30014KT 10SM FEW200 19/12 A2995 RMK AO2 SLP141 T01890117 10222 20183 58003

Aviation forecast (TAF) for San Francisco International Airport

Retrieved 2020-10-24 00:33 UTC (0 seconds ago):

TAF KSFO 232331Z 2400/2506 29014KT P6SM SKC FM240400 28008KT P6SM FEW010 FM241000 VRB05KT P6SM SCT012 FM241500 VRB04KT P6SM BKN012 FM241730 VRB04KT P6SM SCT015 FM242100 27012KT P6SM FEW020 FM250400 27010KT P6SM SCT012